sensor_id;sensor_type;location;lat;lon;timestamp;temperature;humidity
5041;DHT22;2539;52.568;13.364;2022-07-06T00:02:17;16.70;95.90
5041;DHT22;2539;52.568;13.364;2022-07-06T00:04:44;16.60;96.00
5041;DHT22;2539;52.568;13.364;2022-07-06T00:07:10;16.60;96.30
5041;DHT22;2539;52.568;13.364;2022-07-06T00:09:37;16.50;96.50
5041;DHT22;2539;52.568;13.364;2022-07-06T00:12:03;16.50;96.60
5041;DHT22;2539;52.568;13.364;2022-07-06T00:14:29;16.50;97.10
5041;DHT22;2539;52.568;13.364;2022-07-06T00:16:55;16.40;97.00
5041;DHT22;2539;52.568;13.364;2022-07-06T00:19:22;16.50;97.30
5041;DHT22;2539;52.568;13.364;2022-07-06T00:21:48;16.50;97.30
5041;DHT22;2539;52.568;13.364;2022-07-06T00:24:14;16.50;97.30
5041;DHT22;2539;52.568;13.364;2022-07-06T00:26:40;16.50;97.40
5041;DHT22;2539;52.568;13.364;2022-07-06T00:29:06;16.40;97.50
5041;DHT22;2539;52.568;13.364;2022-07-06T00:31:32;16.40;97.60
5041;DHT22;2539;52.568;13.364;2022-07-06T00:33:58;16.40;97.70
5041;DHT22;2539;52.568;13.364;2022-07-06T00:36:25;16.40;97.80
5041;DHT22;2539;52.568;13.364;2022-07-06T00:38:51;16.40;97.90
5041;DHT22;2539;52.568;13.364;2022-07-06T00:41:17;16.30;98.00
5041;DHT22;2539;52.568;13.364;2022-07-06T00:43:56;16.30;98.10
5041;DHT22;2539;52.568;13.364;2022-07-06T00:46:27;16.30;98.50
5041;DHT22;2539;52.568;13.364;2022-07-06T00:48:54;16.30;98.20
5041;DHT22;2539;52.568;13.364;2022-07-06T00:51:22;16.30;98.20
5041;DHT22;2539;52.568;13.364;2022-07-06T00:53:50;16.30;98.60
5041;DHT22;2539;52.568;13.364;2022-07-06T00:56:18;16.30;98.50
5041;DHT22;2539;52.568;13.364;2022-07-06T00:58:44;16.30;98.60
5041;DHT22;2539;52.568;13.364;2022-07-06T01:01:11;16.40;98.50
5041;DHT22;2539;52.568;13.364;2022-07-06T01:03:37;16.40;98.50
5041;DHT22;2539;52.568;13.364;2022-07-06T01:06:03;16.40;98.30
5041;DHT22;2539;52.568;13.364;2022-07-06T01:08:29;16.50;98.30
5041;DHT22;2539;52.568;13.364;2022-07-06T01:10:56;16.40;98.30
5041;DHT22;2539;52.568;13.364;2022-07-06T01:13:22;16.40;98.30
5041;DHT22;2539;52.568;13.364;2022-07-06T01:15:48;16.50;98.40
5041;DHT22;2539;52.568;13.364;2022-07-06T01:18:14;16.40;98.40
5041;DHT22;2539;52.568;13.364;2022-07-06T01:20:41;16.40;98.50
5041;DHT22;2539;52.568;13.364;2022-07-06T01:23:07;16.40;98.60
5041;DHT22;2539;52.568;13.364;2022-07-06T01:25:33;16.40;98.50
5041;DHT22;2539;52.568;13.364;2022-07-06T01:27:59;16.50;98.60
5041;DHT22;2539;52.568;13.364;2022-07-06T01:30:26;16.50;98.60
5041;DHT22;2539;52.568;13.364;2022-07-06T01:32:52;16.50;98.60
5041;DHT22;2539;52.568;13.364;2022-07-06T01:35:19;16.50;98.60
5041;DHT22;2539;52.568;13.364;2022-07-06T01:37:45;16.40;98.70
5041;DHT22;2539;52.568;13.364;2022-07-06T01:40:12;16.30;98.70
5041;DHT22;2539;52.568;13.364;2022-07-06T01:42:38;16.20;98.90
5041;DHT22;2539;52.568;13.364;2022-07-06T01:45:06;16.20;99.10
5041;DHT22;2539;52.568;13.364;2022-07-06T01:47:33;16.20;99.30
5041;DHT22;2539;52.568;13.364;2022-07-06T01:50:00;16.30;99.20
5041;DHT22;2539;52.568;13.364;2022-07-06T01:52:27;16.30;99.00
5041;DHT22;2539;52.568;13.364;2022-07-06T01:54:54;16.40;99.00
5041;DHT22;2539;52.568;13.364;2022-07-06T01:57:21;16.40;99.00
5041;DHT22;2539;52.568;13.364;2022-07-06T01:59:47;16.40;98.80
5041;DHT22;2539;52.568;13.364;2022-07-06T02:02:13;16.50;98.50
5041;DHT22;2539;52.568;13.364;2022-07-06T02:04:41;16.60;98.40
5041;DHT22;2539;52.568;13.364;2022-07-06T02:07:07;16.60;98.20
5041;DHT22;2539;52.568;13.364;2022-07-06T02:09:33;16.60;98.00
5041;DHT22;2539;52.568;13.364;2022-07-06T02:11:59;16.60;98.00
5041;DHT22;2539;52.568;13.364;2022-07-06T02:14:25;16.70;97.90
5041;DHT22;2539;52.568;13.364;2022-07-06T02:16:51;16.60;98.00
5041;DHT22;2539;52.568;13.364;2022-07-06T02:19:18;16.60;98.10
5041;DHT22;2539;52.568;13.364;2022-07-06T02:21:44;16.60;98.40
5041;DHT22;2539;52.568;13.364;2022-07-06T02:24:10;16.50;98.80
5041;DHT22;2539;52.568;13.364;2022-07-06T02:26:36;16.40;99.40
5041;DHT22;2539;52.568;13.364;2022-07-06T02:29:02;16.40;99.90
5041;DHT22;2539;52.568;13.364;2022-07-06T02:31:28;16.20;99.90
5041;DHT22;2539;52.568;13.364;2022-07-06T02:33:54;16.10;99.90
5041;DHT22;2539;52.568;13.364;2022-07-06T02:36:21;16.00;99.90
5041;DHT22;2539;52.568;13.364;2022-07-06T02:38:47;15.80;99.90
5041;DHT22;2539;52.568;13.364;2022-07-06T02:41:13;15.70;99.90
5041;DHT22;2539;52.568;13.364;2022-07-06T02:43:39;15.60;99.90
5041;DHT22;2539;52.568;13.364;2022-07-06T02:46:06;15.60;99.90
5041;DHT22;2539;52.568;13.364;2022-07-06T02:48:32;15.60;99.90
5041;DHT22;2539;52.568;13.364;2022-07-06T02:50:58;15.60;99.90
5041;DHT22;2539;52.568;13.364;2022-07-06T02:53:24;15.60;99.90
5041;DHT22;2539;52.568;13.364;2022-07-06T02:55:51;15.50;99.90
5041;DHT22;2539;52.568;13.364;2022-07-06T02:58:17;15.40;99.90
5041;DHT22;2539;52.568;13.364;2022-07-06T03:00:43;15.40;99.90
5041;DHT22;2539;52.568;13.364;2022-07-06T03:03:09;15.40;99.90
5041;DHT22;2539;52.568;13.364;2022-07-06T03:05:36;15.50;99.90
5041;DHT22;2539;52.568;13.364;2022-07-06T03:08:02;15.50;99.90
5041;DHT22;2539;52.568;13.364;2022-07-06T03:10:28;15.60;99.90
5041;DHT22;2539;52.568;13.364;2022-07-06T03:12:55;15.70;99.90
5041;DHT22;2539;52.568;13.364;2022-07-06T03:15:21;15.70;99.90
5041;DHT22;2539;52.568;13.364;2022-07-06T03:17:47;15.80;99.90
5041;DHT22;2539;52.568;13.364;2022-07-06T03:20:13;15.70;99.90
5041;DHT22;2539;52.568;13.364;2022-07-06T03:22:39;15.70;99.90
5041;DHT22;2539;52.568;13.364;2022-07-06T03:25:06;15.70;99.90
5041;DHT22;2539;52.568;13.364;2022-07-06T03:27:32;15.70;99.90
5041;DHT22;2539;52.568;13.364;2022-07-06T03:29:59;15.60;99.90
5041;DHT22;2539;52.568;13.364;2022-07-06T03:32:26;15.60;99.90
5041;DHT22;2539;52.568;13.364;2022-07-06T03:34:52;15.60;99.90
5041;DHT22;2539;52.568;13.364;2022-07-06T03:37:18;15.50;99.90
5041;DHT22;2539;52.568;13.364;2022-07-06T03:39:44;15.50;99.90
5041;DHT22;2539;52.568;13.364;2022-07-06T03:42:10;15.50;99.90
5041;DHT22;2539;52.568;13.364;2022-07-06T03:44:37;15.40;99.90
5041;DHT22;2539;52.568;13.364;2022-07-06T03:47:03;15.40;99.90
5041;DHT22;2539;52.568;13.364;2022-07-06T03:49:29;15.40;99.90
5041;DHT22;2539;52.568;13.364;2022-07-06T03:51:55;15.40;99.90
5041;DHT22;2539;52.568;13.364;2022-07-06T03:54:22;15.50;99.90
5041;DHT22;2539;52.568;13.364;2022-07-06T03:56:48;15.60;99.90
5041;DHT22;2539;52.568;13.364;2022-07-06T03:59:14;15.70;99.90
5041;DHT22;2539;52.568;13.364;2022-07-06T04:01:40;15.60;99.90
5041;DHT22;2539;52.568;13.364;2022-07-06T04:04:07;15.70;99.90
5041;DHT22;2539;52.568;13.364;2022-07-06T04:06:33;15.60;99.90
5041;DHT22;2539;52.568;13.364;2022-07-06T04:09:00;15.70;99.90
5041;DHT22;2539;52.568;13.364;2022-07-06T04:11:27;15.80;99.90
5041;DHT22;2539;52.568;13.364;2022-07-06T04:13:53;15.90;99.90
5041;DHT22;2539;52.568;13.364;2022-07-06T04:16:20;16.40;99.90
5041;DHT22;2539;52.568;13.364;2022-07-06T04:18:46;17.60;99.90
5041;DHT22;2539;52.568;13.364;2022-07-06T04:21:13;17.60;99.50
5041;DHT22;2539;52.568;13.364;2022-07-06T04:23:39;17.20;99.90
5041;DHT22;2539;52.568;13.364;2022-07-06T04:26:05;16.40;99.90
5041;DHT22;2539;52.568;13.364;2022-07-06T04:28:31;16.10;99.90
5041;DHT22;2539;52.568;13.364;2022-07-06T04:30:58;15.90;99.90
5041;DHT22;2539;52.568;13.364;2022-07-06T04:33:24;15.70;99.90
5041;DHT22;2539;52.568;13.364;2022-07-06T04:35:50;15.60;99.90
5041;DHT22;2539;52.568;13.364;2022-07-06T04:38:16;15.50;99.90
5041;DHT22;2539;52.568;13.364;2022-07-06T04:40:43;15.50;99.90
5041;DHT22;2539;52.568;13.364;2022-07-06T04:43:13;15.60;99.90
5041;DHT22;2539;52.568;13.364;2022-07-06T04:45:40;15.70;99.90
5041;DHT22;2539;52.568;13.364;2022-07-06T04:48:06;15.80;99.90
5041;DHT22;2539;52.568;13.364;2022-07-06T04:50:34;15.80;99.90
5041;DHT22;2539;52.568;13.364;2022-07-06T04:53:00;15.80;99.90
5041;DHT22;2539;52.568;13.364;2022-07-06T04:55:26;15.80;99.90
5041;DHT22;2539;52.568;13.364;2022-07-06T04:57:52;15.70;99.90
5041;DHT22;2539;52.568;13.364;2022-07-06T05:00:22;15.70;99.90
5041;DHT22;2539;52.568;13.364;2022-07-06T05:02:51;15.60;99.90
5041;DHT22;2539;52.568;13.364;2022-07-06T05:05:18;15.70;99.90
5041;DHT22;2539;52.568;13.364;2022-07-06T05:07:44;15.70;99.90
5041;DHT22;2539;52.568;13.364;2022-07-06T05:10:12;15.80;99.90
5041;DHT22;2539;52.568;13.364;2022-07-06T05:12:38;15.80;99.90
5041;DHT22;2539;52.568;13.364;2022-07-06T05:15:05;15.70;99.90
5041;DHT22;2539;52.568;13.364;2022-07-06T05:17:31;15.80;99.90
5041;DHT22;2539;52.568;13.364;2022-07-06T05:19:58;15.80;99.90
5041;DHT22;2539;52.568;13.364;2022-07-06T05:22:24;15.80;99.90
5041;DHT22;2539;52.568;13.364;2022-07-06T05:24:51;15.90;99.90
5041;DHT22;2539;52.568;13.364;2022-07-06T05:27:17;15.80;99.90
5041;DHT22;2539;52.568;13.364;2022-07-06T05:29:43;15.80;99.90
5041;DHT22;2539;52.568;13.364;2022-07-06T05:32:09;15.80;99.90
5041;DHT22;2539;52.568;13.364;2022-07-06T05:34:36;16.00;99.90
5041;DHT22;2539;52.568;13.364;2022-07-06T05:37:04;16.10;99.90
5041;DHT22;2539;52.568;13.364;2022-07-06T05:39:30;16.00;99.90
5041;DHT22;2539;52.568;13.364;2022-07-06T05:41:56;16.20;99.90
5041;DHT22;2539;52.568;13.364;2022-07-06T05:44:22;16.30;99.90
5041;DHT22;2539;52.568;13.364;2022-07-06T05:46:48;16.30;99.90
5041;DHT22;2539;52.568;13.364;2022-07-06T05:49:14;16.40;99.90
5041;DHT22;2539;52.568;13.364;2022-07-06T05:52:00;16.30;99.90
5041;DHT22;2539;52.568;13.364;2022-07-06T05:54:26;16.40;99.90
5041;DHT22;2539;52.568;13.364;2022-07-06T05:56:52;16.30;99.90
5041;DHT22;2539;52.568;13.364;2022-07-06T05:59:18;16.20;99.90
5041;DHT22;2539;52.568;13.364;2022-07-06T06:01:44;16.20;99.90
5041;DHT22;2539;52.568;13.364;2022-07-06T06:04:10;16.30;99.90
5041;DHT22;2539;52.568;13.364;2022-07-06T06:06:36;16.50;99.90
5041;DHT22;2539;52.568;13.364;2022-07-06T06:09:03;16.60;99.90
5041;DHT22;2539;52.568;13.364;2022-07-06T06:11:29;16.50;99.90
5041;DHT22;2539;52.568;13.364;2022-07-06T06:13:55;16.40;99.90
5041;DHT22;2539;52.568;13.364;2022-07-06T06:16:21;16.40;99.90
5041;DHT22;2539;52.568;13.364;2022-07-06T06:18:47;16.50;99.90
5041;DHT22;2539;52.568;13.364;2022-07-06T06:21:14;16.30;99.90
5041;DHT22;2539;52.568;13.364;2022-07-06T06:23:40;16.40;99.90
5041;DHT22;2539;52.568;13.364;2022-07-06T06:26:06;16.50;99.90
5041;DHT22;2539;52.568;13.364;2022-07-06T06:28:32;16.60;99.90
5041;DHT22;2539;52.568;13.364;2022-07-06T06:30:58;16.40;99.90
5041;DHT22;2539;52.568;13.364;2022-07-06T06:33:25;16.50;99.90
5041;DHT22;2539;52.568;13.364;2022-07-06T06:35:52;16.70;99.90
5041;DHT22;2539;52.568;13.364;2022-07-06T06:38:20;16.90;99.90
5041;DHT22;2539;52.568;13.364;2022-07-06T06:40:47;16.70;99.90
5041;DHT22;2539;52.568;13.364;2022-07-06T06:43:13;16.70;99.90
5041;DHT22;2539;52.568;13.364;2022-07-06T06:45:39;16.90;99.90
5041;DHT22;2539;52.568;13.364;2022-07-06T06:48:06;16.80;99.90
5041;DHT22;2539;52.568;13.364;2022-07-06T06:50:33;16.90;99.90
5041;DHT22;2539;52.568;13.364;2022-07-06T06:52:59;17.10;99.90
5041;DHT22;2539;52.568;13.364;2022-07-06T06:55:25;17.00;99.90
5041;DHT22;2539;52.568;13.364;2022-07-06T06:57:51;17.20;99.90
5041;DHT22;2539;52.568;13.364;2022-07-06T07:00:18;17.30;99.90
5041;DHT22;2539;52.568;13.364;2022-07-06T07:02:45;17.30;99.70
5041;DHT22;2539;52.568;13.364;2022-07-06T07:05:11;17.20;99.60
5041;DHT22;2539;52.568;13.364;2022-07-06T07:07:37;17.30;99.60
5041;DHT22;2539;52.568;13.364;2022-07-06T07:10:05;17.40;99.50
5041;DHT22;2539;52.568;13.364;2022-07-06T07:12:31;17.40;99.00
5041;DHT22;2539;52.568;13.364;2022-07-06T07:14:59;17.50;99.00
5041;DHT22;2539;52.568;13.364;2022-07-06T07:17:25;18.00;98.40
5041;DHT22;2539;52.568;13.364;2022-07-06T07:19:52;17.90;96.70
5041;DHT22;2539;52.568;13.364;2022-07-06T07:22:18;18.10;95.70
5041;DHT22;2539;52.568;13.364;2022-07-06T07:24:44;18.00;95.40
5041;DHT22;2539;52.568;13.364;2022-07-06T07:27:10;17.90;95.70
5041;DHT22;2539;52.568;13.364;2022-07-06T07:29:36;17.80;95.40
5041;DHT22;2539;52.568;13.364;2022-07-06T07:32:03;17.70;96.00
5041;DHT22;2539;52.568;13.364;2022-07-06T07:34:29;17.90;96.20
5041;DHT22;2539;52.568;13.364;2022-07-06T07:36:55;18.10;95.70
5041;DHT22;2539;52.568;13.364;2022-07-06T07:39:21;18.10;95.70
5041;DHT22;2539;52.568;13.364;2022-07-06T07:41:48;18.00;96.00
5041;DHT22;2539;52.568;13.364;2022-07-06T07:44:16;18.30;95.70
5041;DHT22;2539;52.568;13.364;2022-07-06T07:46:42;18.70;94.90
5041;DHT22;2539;52.568;13.364;2022-07-06T07:49:09;18.80;94.70
5041;DHT22;2539;52.568;13.364;2022-07-06T07:51:35;18.00;95.70
5041;DHT22;2539;52.568;13.364;2022-07-06T07:54:01;18.10;95.20
5041;DHT22;2539;52.568;13.364;2022-07-06T07:56:28;17.80;95.70
5041;DHT22;2539;52.568;13.364;2022-07-06T07:58:54;17.90;95.90
5041;DHT22;2539;52.568;13.364;2022-07-06T08:01:20;17.60;96.00
5041;DHT22;2539;52.568;13.364;2022-07-06T08:03:46;17.60;95.50
5041;DHT22;2539;52.568;13.364;2022-07-06T08:06:12;17.60;95.10
5041;DHT22;2539;52.568;13.364;2022-07-06T08:08:39;18.00;95.00
5041;DHT22;2539;52.568;13.364;2022-07-06T08:11:05;18.50;94.30
5041;DHT22;2539;52.568;13.364;2022-07-06T08:13:31;18.90;93.40
5041;DHT22;2539;52.568;13.364;2022-07-06T08:15:57;18.80;93.60
5041;DHT22;2539;52.568;13.364;2022-07-06T08:18:23;18.60;93.80
5041;DHT22;2539;52.568;13.364;2022-07-06T08:20:49;18.20;93.60
5041;DHT22;2539;52.568;13.364;2022-07-06T08:23:16;18.40;93.50
5041;DHT22;2539;52.568;13.364;2022-07-06T08:25:42;18.20;93.40
5041;DHT22;2539;52.568;13.364;2022-07-06T08:28:08;18.30;93.80
5041;DHT22;2539;52.568;13.364;2022-07-06T08:30:34;18.30;93.40
5041;DHT22;2539;52.568;13.364;2022-07-06T08:33:01;18.60;92.90
5041;DHT22;2539;52.568;13.364;2022-07-06T08:35:28;18.40;93.00
5041;DHT22;2539;52.568;13.364;2022-07-06T08:37:53;18.10;93.90
5041;DHT22;2539;52.568;13.364;2022-07-06T08:40:19;18.00;93.90
5041;DHT22;2539;52.568;13.364;2022-07-06T08:42:47;18.10;94.00
5041;DHT22;2539;52.568;13.364;2022-07-06T08:45:15;18.10;93.60
5041;DHT22;2539;52.568;13.364;2022-07-06T08:47:42;17.90;93.60
5041;DHT22;2539;52.568;13.364;2022-07-06T08:50:09;18.20;93.40
5041;DHT22;2539;52.568;13.364;2022-07-06T08:52:36;18.30;92.60
5041;DHT22;2539;52.568;13.364;2022-07-06T08:55:03;18.40;91.60
5041;DHT22;2539;52.568;13.364;2022-07-06T08:57:29;18.60;90.70
5041;DHT22;2539;52.568;13.364;2022-07-06T08:59:56;18.70;90.70
5041;DHT22;2539;52.568;13.364;2022-07-06T09:02:25;19.20;89.50
5041;DHT22;2539;52.568;13.364;2022-07-06T09:04:55;19.50;88.60
5041;DHT22;2539;52.568;13.364;2022-07-06T09:07:22;19.70;89.10
5041;DHT22;2539;52.568;13.364;2022-07-06T09:09:50;19.30;86.70
5041;DHT22;2539;52.568;13.364;2022-07-06T09:12:17;19.40;85.80
5041;DHT22;2539;52.568;13.364;2022-07-06T09:14:43;19.10;84.50
5041;DHT22;2539;52.568;13.364;2022-07-06T09:17:09;18.90;87.30
5041;DHT22;2539;52.568;13.364;2022-07-06T09:19:37;19.40;85.40
5041;DHT22;2539;52.568;13.364;2022-07-06T09:22:04;19.40;86.00
5041;DHT22;2539;52.568;13.364;2022-07-06T09:24:31;19.50;82.50
5041;DHT22;2539;52.568;13.364;2022-07-06T09:26:58;18.90;85.30
5041;DHT22;2539;52.568;13.364;2022-07-06T09:29:31;18.90;85.00
5041;DHT22;2539;52.568;13.364;2022-07-06T09:32:03;18.50;87.20
5041;DHT22;2539;52.568;13.364;2022-07-06T09:34:42;18.50;87.20
5041;DHT22;2539;52.568;13.364;2022-07-06T09:37:09;18.60;86.60
5041;DHT22;2539;52.568;13.364;2022-07-06T09:39:36;18.70;86.10
5041;DHT22;2539;52.568;13.364;2022-07-06T09:42:03;18.90;86.40
5041;DHT22;2539;52.568;13.364;2022-07-06T09:44:31;18.70;87.10
5041;DHT22;2539;52.568;13.364;2022-07-06T09:47:02;18.80;88.10
5041;DHT22;2539;52.568;13.364;2022-07-06T09:49:29;19.00;86.40
5041;DHT22;2539;52.568;13.364;2022-07-06T09:51:57;19.50;86.60
5041;DHT22;2539;52.568;13.364;2022-07-06T09:54:24;19.40;84.50
5041;DHT22;2539;52.568;13.364;2022-07-06T09:56:51;18.80;86.30
5041;DHT22;2539;52.568;13.364;2022-07-06T09:59:20;18.70;87.50
5041;DHT22;2539;52.568;13.364;2022-07-06T10:01:54;18.20;87.80
5041;DHT22;2539;52.568;13.364;2022-07-06T10:04:22;18.10;90.00
5041;DHT22;2539;52.568;13.364;2022-07-06T10:06:49;18.20;90.90
5041;DHT22;2539;52.568;13.364;2022-07-06T10:09:16;18.40;91.20
5041;DHT22;2539;52.568;13.364;2022-07-06T10:11:49;18.40;91.30
5041;DHT22;2539;52.568;13.364;2022-07-06T10:14:18;18.70;91.40
5041;DHT22;2539;52.568;13.364;2022-07-06T10:16:46;18.70;91.40
5041;DHT22;2539;52.568;13.364;2022-07-06T10:19:14;19.00;91.20
5041;DHT22;2539;52.568;13.364;2022-07-06T10:21:41;19.00;91.00
5041;DHT22;2539;52.568;13.364;2022-07-06T10:24:09;19.00;91.10
5041;DHT22;2539;52.568;13.364;2022-07-06T10:26:36;19.00;91.30
5041;DHT22;2539;52.568;13.364;2022-07-06T10:29:04;19.20;91.00
5041;DHT22;2539;52.568;13.364;2022-07-06T10:31:32;19.30;90.50
5041;DHT22;2539;52.568;13.364;2022-07-06T10:34:00;19.60;90.30
5041;DHT22;2539;52.568;13.364;2022-07-06T10:36:28;19.30;87.00
5041;DHT22;2539;52.568;13.364;2022-07-06T10:38:54;19.00;86.40
5041;DHT22;2539;52.568;13.364;2022-07-06T10:41:31;18.80;88.70
5041;DHT22;2539;52.568;13.364;2022-07-06T10:44:17;19.00;88.50
5041;DHT22;2539;52.568;13.364;2022-07-06T10:46:57;19.10;88.40
5041;DHT22;2539;52.568;13.364;2022-07-06T10:49:27;19.50;87.60
5041;DHT22;2539;52.568;13.364;2022-07-06T10:51:56;19.10;89.10
5041;DHT22;2539;52.568;13.364;2022-07-06T10:54:23;19.30;88.10
5041;DHT22;2539;52.568;13.364;2022-07-06T10:56:51;19.70;86.70
5041;DHT22;2539;52.568;13.364;2022-07-06T10:59:23;19.40;88.20
5041;DHT22;2539;52.568;13.364;2022-07-06T11:04:37;19.40;87.00
5041;DHT22;2539;52.568;13.364;2022-07-06T11:07:09;19.70;85.80
5041;DHT22;2539;52.568;13.364;2022-07-06T11:09:36;19.90;84.70
5041;DHT22;2539;52.568;13.364;2022-07-06T11:12:33;19.90;84.60
5041;DHT22;2539;52.568;13.364;2022-07-06T11:15:00;19.40;84.60
5041;DHT22;2539;52.568;13.364;2022-07-06T11:17:28;19.30;86.40
5041;DHT22;2539;52.568;13.364;2022-07-06T11:20:10;19.20;86.90
5041;DHT22;2539;52.568;13.364;2022-07-06T11:22:38;18.90;88.40
5041;DHT22;2539;52.568;13.364;2022-07-06T11:25:05;19.10;87.80
5041;DHT22;2539;52.568;13.364;2022-07-06T11:27:34;19.00;87.70
5041;DHT22;2539;52.568;13.364;2022-07-06T11:30:00;18.90;88.40
5041;DHT22;2539;52.568;13.364;2022-07-06T11:32:27;18.90;88.20
5041;DHT22;2539;52.568;13.364;2022-07-06T11:34:53;18.80;90.00
5041;DHT22;2539;52.568;13.364;2022-07-06T11:37:19;18.80;88.50
5041;DHT22;2539;52.568;13.364;2022-07-06T11:39:47;18.90;88.80
5041;DHT22;2539;52.568;13.364;2022-07-06T11:42:15;19.00;87.40
5041;DHT22;2539;52.568;13.364;2022-07-06T11:44:43;19.10;85.60
5041;DHT22;2539;52.568;13.364;2022-07-06T11:47:10;19.20;85.60
5041;DHT22;2539;52.568;13.364;2022-07-06T11:49:38;19.30;86.40
5041;DHT22;2539;52.568;13.364;2022-07-06T11:52:12;19.70;85.50
5041;DHT22;2539;52.568;13.364;2022-07-06T11:54:39;19.70;85.50
5041;DHT22;2539;52.568;13.364;2022-07-06T11:57:08;20.30;84.70
5041;DHT22;2539;52.568;13.364;2022-07-06T11:59:37;19.80;83.80
5041;DHT22;2539;52.568;13.364;2022-07-06T12:04:34;20.00;84.70
5041;DHT22;2539;52.568;13.364;2022-07-06T12:07:05;19.80;84.90
5041;DHT22;2539;52.568;13.364;2022-07-06T12:09:34;20.00;84.50
5041;DHT22;2539;52.568;13.364;2022-07-06T12:12:02;19.30;86.20
5041;DHT22;2539;52.568;13.364;2022-07-06T12:14:30;19.30;86.80
5041;DHT22;2539;52.568;13.364;2022-07-06T12:16:56;19.20;88.00
5041;DHT22;2539;52.568;13.364;2022-07-06T12:19:28;19.30;87.40
5041;DHT22;2539;52.568;13.364;2022-07-06T12:21:54;19.30;87.00
5041;DHT22;2539;52.568;13.364;2022-07-06T12:24:22;19.50;85.50
5041;DHT22;2539;52.568;13.364;2022-07-06T12:26:49;19.60;85.80
5041;DHT22;2539;52.568;13.364;2022-07-06T12:29:16;19.80;84.70
5041;DHT22;2539;52.568;13.364;2022-07-06T12:34:15;20.30;83.60
5041;DHT22;2539;52.568;13.364;2022-07-06T12:36:43;20.30;82.70
5041;DHT22;2539;52.568;13.364;2022-07-06T12:39:12;20.30;81.90
5041;DHT22;2539;52.568;13.364;2022-07-06T12:41:47;20.40;82.30
5041;DHT22;2539;52.568;13.364;2022-07-06T12:44:15;20.20;80.70
5041;DHT22;2539;52.568;13.364;2022-07-06T12:46:42;20.90;80.50
5041;DHT22;2539;52.568;13.364;2022-07-06T12:49:22;20.80;78.70
5041;DHT22;2539;52.568;13.364;2022-07-06T12:51:57;20.00;80.30
5041;DHT22;2539;52.568;13.364;2022-07-06T12:54:30;20.20;80.60
5041;DHT22;2539;52.568;13.364;2022-07-06T12:57:08;20.50;80.40
5041;DHT22;2539;52.568;13.364;2022-07-06T12:59:36;20.90;78.80
5041;DHT22;2539;52.568;13.364;2022-07-06T13:02:05;21.50;77.10
5041;DHT22;2539;52.568;13.364;2022-07-06T13:04:32;20.80;77.70
5041;DHT22;2539;52.568;13.364;2022-07-06T13:06:59;21.00;77.90
5041;DHT22;2539;52.568;13.364;2022-07-06T13:09:27;20.60;78.00
5041;DHT22;2539;52.568;13.364;2022-07-06T13:11:54;20.50;79.30
5041;DHT22;2539;52.568;13.364;2022-07-06T13:14:25;19.90;81.00
5041;DHT22;2539;52.568;13.364;2022-07-06T13:16:52;20.10;80.70
5041;DHT22;2539;52.568;13.364;2022-07-06T13:19:19;20.40;78.30
5041;DHT22;2539;52.568;13.364;2022-07-06T13:21:44;20.40;77.90
5041;DHT22;2539;52.568;13.364;2022-07-06T13:24:10;20.50;78.20
5041;DHT22;2539;52.568;13.364;2022-07-06T13:26:36;20.50;78.40
5041;DHT22;2539;52.568;13.364;2022-07-06T13:29:03;20.80;75.70
5041;DHT22;2539;52.568;13.364;2022-07-06T13:31:30;20.70;74.40
5041;DHT22;2539;52.568;13.364;2022-07-06T13:33:56;20.80;74.20
5041;DHT22;2539;52.568;13.364;2022-07-06T13:36:23;20.80;74.70
5041;DHT22;2539;52.568;13.364;2022-07-06T13:38:49;20.50;73.90
5041;DHT22;2539;52.568;13.364;2022-07-06T13:41:15;20.40;74.30
5041;DHT22;2539;52.568;13.364;2022-07-06T13:43:41;20.90;73.60
5041;DHT22;2539;52.568;13.364;2022-07-06T13:46:08;20.50;73.20
5041;DHT22;2539;52.568;13.364;2022-07-06T13:48:34;20.70;72.20
5041;DHT22;2539;52.568;13.364;2022-07-06T13:51:01;20.80;71.80
5041;DHT22;2539;52.568;13.364;2022-07-06T13:53:27;20.40;72.10
5041;DHT22;2539;52.568;13.364;2022-07-06T13:55:53;20.70;71.20
5041;DHT22;2539;52.568;13.364;2022-07-06T13:58:20;20.40;71.90
5041;DHT22;2539;52.568;13.364;2022-07-06T14:00:46;20.70;71.60
5041;DHT22;2539;52.568;13.364;2022-07-06T14:03:12;21.00;72.00
5041;DHT22;2539;52.568;13.364;2022-07-06T14:05:38;20.80;68.30
5041;DHT22;2539;52.568;13.364;2022-07-06T14:08:04;20.90;67.40
5041;DHT22;2539;52.568;13.364;2022-07-06T14:10:31;21.30;66.30
5041;DHT22;2539;52.568;13.364;2022-07-06T14:12:57;20.70;68.70
5041;DHT22;2539;52.568;13.364;2022-07-06T14:15:23;21.00;68.80
5041;DHT22;2539;52.568;13.364;2022-07-06T14:17:49;20.50;70.40
5041;DHT22;2539;52.568;13.364;2022-07-06T14:20:16;20.50;71.10
5041;DHT22;2539;52.568;13.364;2022-07-06T14:22:42;20.20;72.20
5041;DHT22;2539;52.568;13.364;2022-07-06T14:25:08;20.20;73.10
5041;DHT22;2539;52.568;13.364;2022-07-06T14:27:35;20.30;73.10
5041;DHT22;2539;52.568;13.364;2022-07-06T14:30:02;20.40;73.40
5041;DHT22;2539;52.568;13.364;2022-07-06T14:32:29;20.50;73.50
5041;DHT22;2539;52.568;13.364;2022-07-06T14:34:55;20.60;73.40
5041;DHT22;2539;52.568;13.364;2022-07-06T14:37:21;20.60;74.20
5041;DHT22;2539;52.568;13.364;2022-07-06T14:39:47;20.40;74.40
5041;DHT22;2539;52.568;13.364;2022-07-06T14:42:15;20.10;73.40
5041;DHT22;2539;52.568;13.364;2022-07-06T14:44:41;19.90;74.50
5041;DHT22;2539;52.568;13.364;2022-07-06T14:47:07;20.00;75.30
5041;DHT22;2539;52.568;13.364;2022-07-06T14:49:33;19.90;75.80
5041;DHT22;2539;52.568;13.364;2022-07-06T14:51:59;19.70;77.10
5041;DHT22;2539;52.568;13.364;2022-07-06T14:54:25;19.60;77.90
5041;DHT22;2539;52.568;13.364;2022-07-06T14:56:52;19.60;78.50
5041;DHT22;2539;52.568;13.364;2022-07-06T14:59:18;19.30;79.60
5041;DHT22;2539;52.568;13.364;2022-07-06T15:01:45;19.30;80.80
5041;DHT22;2539;52.568;13.364;2022-07-06T15:04:11;19.10;82.00
5041;DHT22;2539;52.568;13.364;2022-07-06T15:06:37;18.80;83.40
5041;DHT22;2539;52.568;13.364;2022-07-06T15:09:04;18.80;84.40
5041;DHT22;2539;52.568;13.364;2022-07-06T15:11:31;18.90;84.90
5041;DHT22;2539;52.568;13.364;2022-07-06T15:13:57;18.80;85.30
5041;DHT22;2539;52.568;13.364;2022-07-06T15:16:23;18.90;85.30
5041;DHT22;2539;52.568;13.364;2022-07-06T15:18:50;18.70;85.20
5041;DHT22;2539;52.568;13.364;2022-07-06T15:21:17;18.70;86.20
5041;DHT22;2539;52.568;13.364;2022-07-06T15:23:43;18.70;85.90
5041;DHT22;2539;52.568;13.364;2022-07-06T15:26:10;18.70;85.80
5041;DHT22;2539;52.568;13.364;2022-07-06T15:28:36;18.60;85.90
5041;DHT22;2539;52.568;13.364;2022-07-06T15:31:02;18.70;85.60
5041;DHT22;2539;52.568;13.364;2022-07-06T15:33:28;18.60;85.40
5041;DHT22;2539;52.568;13.364;2022-07-06T15:35:55;18.60;85.80
5041;DHT22;2539;52.568;13.364;2022-07-06T15:38:21;18.60;85.70
5041;DHT22;2539;52.568;13.364;2022-07-06T15:40:47;18.80;85.30
5041;DHT22;2539;52.568;13.364;2022-07-06T15:43:17;19.00;85.00
5041;DHT22;2539;52.568;13.364;2022-07-06T15:45:44;19.00;84.80
5041;DHT22;2539;52.568;13.364;2022-07-06T15:48:10;19.10;85.30
5041;DHT22;2539;52.568;13.364;2022-07-06T15:50:36;19.30;84.50
5041;DHT22;2539;52.568;13.364;2022-07-06T15:53:03;19.30;85.00